Verhnij Baskuncak, Russia
Current Conditions -  °F | °C
As of 11:30 AM on Thursday 23 Oct 2014 (Local Time) from URWW Reporting Station
Overcast Overcast  
Wind Chill: 20°   Ceiling: 2900
Heat Index: 30°   Visibility: 6mi
Dew Point: 23°   Wind: 13mph
Humidity: 75%   Direction: 20°NNE
Pressure: 30.09"   Gusts: NA
Location:  48.22°N, 46.73°E
Report Text: URWW 230830Z 02006MPS 9999 OVC029 M01/M05 Q1019 NOSIG RMKSC070
Loading
Personal Weather Stations






























Interactive Weather Map
Tropical Storm Tracking
New forecast layout! Learn more

10-Day Weather Forecast

Advertisements
Track Severe Weather on mobile